Time;durP1;ratioP1;P1;durP2;ratioP2;P2;SDS_P1;SDS_P2;PMS_P1;PMS_P2;Temp;Humidity;BMP_temperature;BMP_pressure;BME280_temperature;BME280_humidity;BME280_pressure;Samples;Min_cycle;Max_cycle;Signal;HPM_P1;HPM_P2
2021/08/03 00:01:11;;;;;;;6.47;3.13;;;;;;;16.33;70.64;100396.84;5090063;28;20119;-78
2021/08/03 00:04:00;;;;;;;4.13;3.10;;;;;;;16.24;70.72;100394.06;5071340;28;20027;-78
2021/08/03 00:06:56;;;;;;;3.33;2.75;;;;;;;16.21;71.10;100386.34;5085428;28;20459;-78
2021/08/03 00:09:42;;;;;;;4.30;2.97;;;;;;;16.17;70.99;100393.78;5057988;28;20027;-77
2021/08/03 00:12:28;;;;;;;3.47;2.53;;;;;;;16.16;70.94;100384.56;5073175;28;20044;-78
2021/08/03 00:15:13;;;;;;;3.92;2.67;;;;;;;16.09;71.06;100389.84;5080041;28;20104;-78
2021/08/03 00:17:59;;;;;;;4.32;2.90;;;;;;;16.08;71.01;100389.03;5071412;28;20032;-77
2021/08/03 00:20:45;;;;;;;3.63;3.13;;;;;;;16.02;70.96;100386.75;5064145;28;20039;-78
2021/08/03 00:23:31;;;;;;;5.15;2.65;;;;;;;16.01;71.22;100388.69;5086916;28;20122;-77
2021/08/03 00:26:17;;;;;;;3.60;2.70;;;;;;;15.94;71.20;100385.59;5072447;28;20044;-78
2021/08/03 00:29:02;;;;;;;3.17;2.78;;;;;;;15.89;71.10;100388.56;5076885;28;20110;-78
2021/08/03 00:31:49;;;;;;;5.50;3.08;;;;;;;15.81;71.21;100384.63;5081399;28;20028;-78
2021/08/03 00:34:36;;;;;;;3.47;2.70;;;;;;;15.78;71.30;100390.91;5084175;28;20400;-78
2021/08/03 00:37:22;;;;;;;3.53;2.78;;;;;;;15.73;71.21;100387.44;5081867;28;20063;-78
2021/08/03 00:40:09;;;;;;;5.32;2.88;;;;;;;15.67;71.20;100381.16;5094644;28;20395;-78
2021/08/03 00:42:54;;;;;;;4.38;2.97;;;;;;;15.61;71.32;100377.72;5069653;28;20495;-78
2021/08/03 00:45:40;;;;;;;3.17;2.60;;;;;;;15.58;71.54;100385.97;5072417;28;20035;-77
2021/08/03 00:48:26;;;;;;;4.97;2.95;;;;;;;15.51;71.92;100377.22;5078312;28;20581;-78
2021/08/03 00:51:12;;;;;;;4.47;3.03;;;;;;;15.48;71.82;100384.31;5084565;28;20074;-78
2021/08/03 00:53:58;;;;;;;4.55;2.75;;;;;;;15.47;71.93;100379.06;5083884;28;20056;-78
2021/08/03 00:56:44;;;;;;;3.78;2.63;;;;;;;15.47;72.12;100373.47;5071488;28;20120;-78
2021/08/03 00:59:30;;;;;;;3.35;2.78;;;;;;;15.42;72.03;100368.84;5084472;28;20124;-78
2021/08/03 01:02:15;;;;;;;3.88;2.58;;;;;;;15.38;72.27;100365.06;5067304;28;20035;-78
2021/08/03 01:05:01;;;;;;;4.05;3.08;;;;;;;15.38;72.09;100371.50;5087990;27;20066;-78
2021/08/03 01:07:56;;;;;;;5.63;3.03;;;;;;;15.32;72.35;100358.81;5075987;28;20039;-77
2021/08/03 01:10:58;;;;;;;3.80;2.83;;;;;;;15.31;72.18;100356.34;5091472;28;20032;-78
2021/08/03 01:14:15;;;;;;;4.20;2.90;;;;;;;15.32;72.48;100361.63;5086272;28;20027;-77
2021/08/03 01:17:06;;;;;;;4.57;2.92;;;;;;;15.24;72.38;100359.66;5095960;27;20032;-77
2021/08/03 01:20:21;;;;;;;4.43;2.88;;;;;;;15.24;72.42;100359.66;5102509;28;20035;-77
2021/08/03 01:23:17;;;;;;;4.97;2.85;;;;;;;15.23;72.58;100360.78;5105192;28;20039;-78
2021/08/03 01:26:08;;;;;;;4.20;2.67;;;;;;;15.16;72.70;100361.28;5087523;28;20399;-78
2021/08/03 01:28:54;;;;;;;2.78;2.47;;;;;;;15.15;72.74;100364.41;5098344;28;20102;-77
2021/08/03 01:31:42;;;;;;;3.40;2.83;;;;;;;15.14;72.72;100359.97;5089863;27;20040;-78
2021/08/03 01:34:27;;;;;;;3.20;2.90;;;;;;;15.12;72.54;100362.25;5091810;28;20036;-78
2021/08/03 01:37:17;;;;;;;4.10;2.97;;;;;;;15.05;72.91;100362.75;5072720;28;20522;-78
2021/08/03 01:40:08;;;;;;;4.35;3.00;;;;;;;15.06;72.62;100360.78;5089997;28;20067;-78
2021/08/03 01:42:54;;;;;;;4.68;3.00;;;;;;;14.98;72.75;100359.63;5063981;28;20027;-77
2021/08/03 01:45:40;;;;;;;4.15;2.70;;;;;;;14.97;72.95;100355.19;5089800;28;20051;-78
2021/08/03 01:48:26;;;;;;;4.38;3.00;;;;;;;14.93;73.06;100360.63;5087489;28;20044;-78
2021/08/03 01:51:13;;;;;;;5.47;3.10;;;;;;;14.90;73.27;100361.25;5074479;28;20044;-78
2021/08/03 01:53:59;;;;;;;2.92;2.60;;;;;;;14.85;73.14;100363.38;5077138;28;20044;-78
2021/08/03 01:56:45;;;;;;;4.40;2.88;;;;;;;14.78;73.21;100361.06;5069107;28;20036;-78
2021/08/03 01:59:32;;;;;;;5.03;2.83;;;;;;;14.76;72.99;100352.19;5081066;28;20040;-78
2021/08/03 02:02:18;;;;;;;5.93;3.45;;;;;;;14.72;73.09;100365.16;5059464;28;20040;-78
2021/08/03 02:05:04;;;;;;;6.97;3.28;;;;;;;14.66;73.37;100370.09;5052143;28;20896;-78
2021/08/03 02:07:50;;;;;;;4.50;3.08;;;;;;;14.64;73.26;100365.97;5068177;28;20072;-78
2021/08/03 02:10:36;;;;;;;5.03;3.03;;;;;;;14.58;73.44;100370.88;5052174;28;20597;-78
2021/08/03 02:13:22;;;;;;;5.20;3.40;;;;;;;14.53;73.67;100377.44;5062359;28;20036;-78
2021/08/03 02:16:09;;;;;;;4.10;3.10;;;;;;;14.52;74.06;100375.81;5049670;28;20032;-78
2021/08/03 02:18:54;;;;;;;5.55;3.50;;;;;;;14.52;73.75;100378.59;5059843;28;20509;-78
2021/08/03 02:21:44;;;;;;;3.97;3.30;;;;;;;14.50;74.27;100375.25;5090776;28;20104;-78
2021/08/03 02:24:30;;;;;;;3.72;3.30;;;;;;;14.49;74.02;100370.84;5048088;28;20051;-78
2021/08/03 02:27:16;;;;;;;4.18;3.42;;;;;;;14.46;74.33;100371.50;5066492;28;20039;-78
2021/08/03 02:30:01;;;;;;;4.50;3.20;;;;;;;14.45;74.38;100372.63;5053981;28;20111;-78
2021/08/03 02:33:06;;;;;;;4.95;3.45;;;;;;;14.45;74.55;100378.19;5064782;28;20085;-78
2021/08/03 02:35:55;;;;;;;4.28;3.00;;;;;;;14.43;74.42;100383.31;5092215;28;20028;-78
2021/08/03 02:38:43;;;;;;;6.55;3.40;;;;;;;14.45;74.44;100375.41;5047455;28;20123;-79
2021/08/03 02:41:30;;;;;;;5.43;3.30;;;;;;;14.43;74.51;100369.34;5077446;28;20562;-78
2021/08/03 02:44:16;;;;;;;3.42;3.13;;;;;;;14.42;74.56;100367.69;5064185;28;20125;-78
2021/08/03 02:47:09;;;;;;;4.05;3.33;;;;;;;14.42;74.30;100367.69;5052331;28;20038;-78
2021/08/03 02:50:04;;;;;;;4.60;3.42;;;;;;;14.39;74.54;100368.31;5066441;28;20052;-78
2021/08/03 02:52:55;;;;;;;4.28;2.97;;;;;;;14.36;74.82;100359.78;5057410;28;20090;-78
2021/08/03 02:55:49;;;;;;;5.50;3.53;;;;;;;14.39;74.38;100361.91;5083816;28;20603;-78
2021/08/03 02:58:46;;;;;;;6.10;3.42;;;;;;;14.31;74.80;100361.56;5084590;28;20511;-78
2021/08/03 03:01:32;;;;;;;6.40;3.35;;;;;;;14.29;74.33;100357.44;5084083;28;20118;-78
2021/08/03 03:04:30;;;;;;;4.93;3.30;;;;;;;14.29;74.43;100363.03;5066711;28;20039;-78
2021/08/03 03:07:19;;;;;;;5.55;3.60;;;;;;;14.21;74.73;100361.03;5069742;28;20093;-78
2021/08/03 03:10:09;;;;;;;3.75;3.35;;;;;;;14.24;74.55;100366.78;5082265;27;20032;-78
2021/08/03 03:13:11;;;;;;;5.20;3.40;;;;;;;14.17;74.56;100357.22;5084902;28;20027;-78
2021/08/03 03:15:57;;;;;;;3.70;3.13;;;;;;;14.15;74.33;100351.97;5076611;28;20047;-78
2021/08/03 03:18:43;;;;;;;5.22;3.40;;;;;;;14.07;74.38;100350.78;5068928;28;20532;-78
2021/08/03 03:21:29;;;;;;;5.30;3.35;;;;;;;14.05;74.46;100358.66;5075604;28;20031;-78
2021/08/03 03:24:15;;;;;;;3.90;3.15;;;;;;;13.98;74.20;100354.66;5085575;28;20126;-78
2021/08/03 03:27:01;;;;;;;8.23;3.15;;;;;;;13.96;74.21;100357.81;5071776;28;20035;-78
2021/08/03 03:29:46;;;;;;;4.00;3.35;;;;;;;13.90;74.14;100355.44;5085931;27;20095;-78
2021/08/03 03:32:32;;;;;;;8.40;3.55;;;;;;;13.83;74.38;100353.13;5086513;27;20080;-78
2021/08/03 03:35:19;;;;;;;5.45;3.35;;;;;;;13.77;74.37;100360.00;5064582;28;20040;-78
2021/08/03 03:38:05;;;;;;;9.43;3.50;;;;;;;13.72;74.52;100360.13;5071128;28;20392;-79
2021/08/03 03:40:51;;;;;;;5.90;3.67;;;;;;;13.68;74.72;100361.88;5071248;28;20111;-78
2021/08/03 03:43:37;;;;;;;4.60;3.53;;;;;;;13.66;74.59;100361.41;5065767;28;20044;-78
2021/08/03 03:46:25;;;;;;;4.22;3.70;;;;;;;13.60;74.42;100364.31;5070629;28;20035;-78
2021/08/03 03:49:12;;;;;;;7.07;3.58;;;;;;;13.56;74.63;100357.69;5067386;28;20039;-78
2021/08/03 03:51:59;;;;;;;4.47;3.70;;;;;;;13.48;74.71;100355.69;5085500;28;20561;-79
2021/08/03 03:54:45;;;;;;;3.90;3.38;;;;;;;13.46;74.73;100366.34;5112987;28;20044;-78
2021/08/03 03:57:31;;;;;;;4.20;2.85;;;;;;;13.45;74.83;100361.88;5063769;28;20432;-79
2021/08/03 04:00:18;;;;;;;4.60;3.55;;;;;;;13.39;74.96;100369.56;5068109;28;20067;-78
2021/08/03 04:03:05;;;;;;;4.18;3.58;;;;;;;13.36;75.15;100358.22;5085596;28;20042;-78
2021/08/03 04:05:50;;;;;;;5.35;3.70;;;;;;;13.33;75.15;100368.03;5084039;28;20036;-78
2021/08/03 04:08:39;;;;;;;6.70;3.67;;;;;;;13.28;75.02;100368.16;5065576;28;20476;-78
2021/08/03 04:11:25;;;;;;;4.80;3.50;;;;;;;13.26;75.15;100364.03;5083606;28;20031;-78
2021/08/03 04:14:13;;;;;;;4.72;3.80;;;;;;;13.19;75.24;100365.28;5071442;28;20047;-79
2021/08/03 04:16:59;;;;;;;4.30;3.28;;;;;;;13.19;75.16;100370.03;5076486;28;20036;-78
2021/08/03 04:19:45;;;;;;;4.22;3.17;;;;;;;13.17;75.35;100367.53;5077639;28;20040;-79
2021/08/03 04:22:30;;;;;;;4.50;3.60;;;;;;;13.17;75.41;100356.38;5077099;28;20034;-78
2021/08/03 04:25:16;;;;;;;4.57;3.45;;;;;;;13.10;75.31;100367.16;5073392;28;20032;-78
2021/08/03 04:28:02;;;;;;;6.07;4.07;;;;;;;13.08;75.44;100363.88;5086441;28;20044;-79
2021/08/03 04:30:48;;;;;;;4.65;3.28;;;;;;;13.06;75.46;100365.31;5087129;28;20031;-78
2021/08/03 04:33:37;;;;;;;5.97;3.72;;;;;;;13.05;75.59;100380.41;5083374;28;20032;-77
2021/08/03 04:36:22;;;;;;;4.30;3.63;;;;;;;13.02;75.34;100370.69;5084911;28;20032;-77
2021/08/03 04:39:10;;;;;;;5.32;4.15;;;;;;;13.01;75.66;100377.44;5101007;28;20142;-77
2021/08/03 04:41:56;;;;;;;5.85;3.60;;;;;;;13.01;75.47;100371.84;5098770;28;20034;-78
2021/08/03 04:44:42;;;;;;;4.50;3.50;;;;;;;13.00;75.61;100378.56;5084214;28;20066;-77
2021/08/03 04:47:28;;;;;;;4.68;3.22;;;;;;;12.98;75.63;100380.81;5102822;28;20032;-78
2021/08/03 04:50:15;;;;;;;3.90;3.50;;;;;;;12.98;75.69;100372.44;5101916;28;20036;-80
2021/08/03 04:53:01;;;;;;;4.32;3.88;;;;;;;12.98;75.87;100372.44;5100498;28;20047;-78
2021/08/03 04:55:47;;;;;;;5.57;3.60;;;;;;;13.01;76.11;100377.44;5099485;28;20049;-78
2021/08/03 04:58:33;;;;;;;3.97;3.47;;;;;;;13.03;75.90;100365.94;5092336;28;20035;-77
2021/08/03 05:01:18;;;;;;;4.28;3.40;;;;;;;13.03;76.76;100366.75;5076192;28;20114;-78
2021/08/03 05:04:04;;;;;;;4.30;3.42;;;;;;;13.06;76.82;100368.91;5070548;28;20603;-77
2021/08/03 05:06:50;;;;;;;6.68;4.07;;;;;;;13.13;77.15;100374.09;5067404;28;20059;-77
2021/08/03 05:09:36;;;;;;;5.18;3.83;;;;;;;13.15;78.38;100360.66;5073361;27;20092;-77
2021/08/03 05:12:22;;;;;;;4.95;3.97;;;;;;;13.24;77.86;100367.13;5073189;28;20519;-80
2021/08/03 05:15:08;;;;;;;6.88;3.85;;;;;;;13.30;78.31;100362.28;5093088;28;20094;-78
2021/08/03 05:17:53;;;;;;;5.65;4.40;;;;;;;13.36;77.84;100366.59;5069662;27;20114;-79
2021/08/03 05:20:40;;;;;;;4.85;3.70;;;;;;;13.44;78.17;100370.59;5087384;28;20390;-79
2021/08/03 05:23:26;;;;;;;5.75;3.95;;;;;;;13.52;78.30;100362.28;5089447;28;20111;-79
2021/08/03 05:26:12;;;;;;;7.60;3.42;;;;;;;13.61;78.03;100365.13;5081815;28;20119;-73
2021/08/03 05:28:58;;;;;;;5.20;3.60;;;;;;;13.68;77.47;100364.66;5095908;27;20039;-73
2021/08/03 05:31:43;;;;;;;6.07;3.80;;;;;;;13.77;77.23;100362.78;5085759;28;20464;-73
2021/08/03 05:34:29;;;;;;;4.47;3.50;;;;;;;13.84;77.00;100365.91;5099613;28;20036;-73
2021/08/03 05:37:15;;;;;;;6.90;3.72;;;;;;;13.92;76.81;100370.75;5086506;28;20040;-73
2021/08/03 05:40:05;;;;;;;5.85;3.47;;;;;;;14.02;76.88;100369.66;5076270;27;20038;-73
2021/08/03 05:42:50;;;;;;;6.03;3.95;;;;;;;14.06;77.13;100370.66;5089593;28;20031;-70
2021/08/03 05:45:36;;;;;;;4.97;3.72;;;;;;;14.11;77.15;100372.47;5101329;28;20039;-71
2021/08/03 05:48:22;;;;;;;5.78;3.42;;;;;;;14.18;77.19;100362.50;5096250;28;20040;-78
2021/08/03 05:51:08;;;;;;;5.90;3.20;;;;;;;14.22;76.62;100357.91;5087012;28;20093;-78
2021/08/03 05:53:53;;;;;;;4.00;3.60;;;;;;;14.26;76.99;100358.09;5073216;28;20043;-78
2021/08/03 05:56:41;;;;;;;6.30;3.55;;;;;;;14.30;76.81;100356.31;5086987;28;20039;-78
2021/08/03 05:59:26;;;;;;;5.63;4.28;;;;;;;14.33;76.63;100364.03;5086234;28;20040;-78
2021/08/03 06:02:12;;;;;;;4.35;3.65;;;;;;;14.36;76.95;100363.38;5082760;28;20031;-78
2021/08/03 06:04:59;;;;;;;5.00;3.58;;;;;;;14.42;77.02;100364.88;5089040;28;20039;-78
2021/08/03 06:07:44;;;;;;;5.65;3.70;;;;;;;14.45;76.65;100364.22;5076587;28;20103;-78
2021/08/03 06:10:30;;;;;;;4.38;3.65;;;;;;;14.49;77.12;100367.22;5097885;28;20032;-78
2021/08/03 06:13:16;;;;;;;5.95;3.67;;;;;;;14.52;77.12;100361.00;5072350;28;20088;-78
2021/08/03 06:16:02;;;;;;;5.63;3.47;;;;;;;14.55;76.52;100368.75;5063903;28;20088;-78
2021/08/03 06:18:48;;;;;;;4.75;3.60;;;;;;;14.59;78.07;100369.72;5090540;27;20032;-78
2021/08/03 06:21:34;;;;;;;3.83;3.30;;;;;;;14.62;77.17;100365.47;5084891;28;20035;-78
2021/08/03 06:24:20;;;;;;;4.15;3.47;;;;;;;14.66;77.16;100363.69;5072594;28;20052;-78
2021/08/03 06:27:10;;;;;;;5.65;3.88;;;;;;;14.70;77.69;100373.88;5085943;28;20028;-78
2021/08/03 06:29:56;;;;;;;7.00;3.67;;;;;;;14.75;77.30;100372.91;5078644;28;20392;-78
2021/08/03 06:32:42;;;;;;;6.10;3.83;;;;;;;14.80;77.30;100369.16;5082402;27;20060;-78
2021/08/03 06:35:28;;;;;;;4.95;3.65;;;;;;;14.84;77.48;100373.72;5073506;28;20093;-78
2021/08/03 06:38:14;;;;;;;6.32;4.32;;;;;;;14.89;77.09;100369.97;5070183;28;20404;-78
2021/08/03 06:41:28;;;;;;;4.20;3.78;;;;;;;14.95;77.44;100369.47;5074061;28;20028;-78
2021/08/03 06:44:21;;;;;;;4.25;3.53;;;;;;;15.00;77.07;100362.91;5085292;28;20035;-78
2021/08/03 06:47:07;;;;;;;6.45;4.10;;;;;;;15.06;77.46;100363.56;5097648;28;20040;-78
2021/08/03 06:49:53;;;;;;;4.30;3.53;;;;;;;15.12;77.41;100367.84;5072744;28;20526;-78
2021/08/03 06:52:39;;;;;;;6.07;3.85;;;;;;;15.19;77.66;100369.00;5081661;28;20103;-78
2021/08/03 06:55:32;;;;;;;5.72;3.75;;;;;;;15.26;77.88;100374.09;5071410;27;20043;-78
2021/08/03 06:58:24;;;;;;;;;;;;;;;15.32;77.62;100375.59;5070661;28;20027;-78
2021/08/03 07:01:16;;;;;;;6.93;4.15;;;;;;;15.40;77.92;100368.34;5086514;28;20380;-78
2021/08/03 07:04:03;;;;;;;5.95;4.22;;;;;;;15.45;77.80;100373.78;5076465;28;20031;-78
2021/08/03 07:06:54;;;;;;;6.68;4.47;;;;;;;15.52;77.67;100376.09;5072081;27;20056;-78
2021/08/03 07:09:43;;;;;;;4.82;3.90;;;;;;;15.59;77.78;100370.81;5070689;28;20055;-77
2021/08/03 07:12:28;;;;;;;4.72;3.90;;;;;;;15.64;77.09;100367.84;5067003;28;20036;-78
2021/08/03 07:15:14;;;;;;;6.88;3.80;;;;;;;15.68;76.91;100368.84;5083161;28;20032;-78
2021/08/03 07:18:00;;;;;;;4.20;3.80;;;;;;;15.73;77.18;100362.25;5072105;28;20045;-78
2021/08/03 07:20:46;;;;;;;6.45;4.13;;;;;;;15.78;77.30;100353.69;5085941;28;20039;-80
2021/08/03 07:23:32;;;;;;;8.57;4.18;;;;;;;15.83;77.15;100359.09;5072515;28;20031;-78
2021/08/03 07:26:17;;;;;;;5.70;3.97;;;;;;;15.89;77.51;100356.94;5085539;28;20045;-78
2021/08/03 07:29:03;;;;;;;6.22;4.50;;;;;;;15.93;77.40;100357.91;5084911;28;20396;-78
2021/08/03 07:31:49;;;;;;;4.93;4.13;;;;;;;15.97;76.93;100370.94;5057566;28;20051;-77
2021/08/03 07:34:38;;;;;;;5.30;3.60;;;;;;;16.01;77.18;100371.06;5072379;28;20093;-78
2021/08/03 07:37:26;;;;;;;4.93;3.78;;;;;;;16.04;77.04;100373.19;5073442;28;20042;-77
2021/08/03 07:40:12;;;;;;;4.97;3.80;;;;;;;16.07;76.99;100375.34;5070833;28;20097;-78
2021/08/03 07:42:58;;;;;;;5.90;4.50;;;;;;;16.11;77.23;100375.50;5066518;28;20042;-77
2021/08/03 07:45:44;;;;;;;8.25;3.97;;;;;;;16.16;77.19;100372.50;5086939;28;20061;-78
2021/08/03 07:48:30;;;;;;;6.38;3.85;;;;;;;16.18;76.94;100365.41;5082950;28;20055;-78
2021/08/03 07:51:17;;;;;;;4.88;3.80;;;;;;;16.23;77.02;100372.81;5072812;28;20515;-78
2021/08/03 07:54:02;;;;;;;6.05;4.07;;;;;;;16.27;76.83;100377.44;5080902;28;20052;-77
2021/08/03 07:56:48;;;;;;;6.80;4.75;;;;;;;16.33;77.08;100382.84;5070197;28;20538;-77
2021/08/03 07:59:34;;;;;;;6.75;4.32;;;;;;;16.37;77.82;100373.41;5070784;27;20032;-78
2021/08/03 08:02:21;;;;;;;7.47;3.95;;;;;;;16.41;76.81;100385.63;5059144;28;20379;-78
2021/08/03 08:05:07;;;;;;;8.93;4.75;;;;;;;16.44;77.27;100384.94;5072466;28;20040;-79
2021/08/03 08:07:57;;;;;;;6.63;4.38;;;;;;;16.48;76.78;100385.06;5069245;28;20042;-78
2021/08/03 08:10:42;;;;;;;6.97;4.15;;;;;;;16.51;76.36;100390.00;5071367;28;20024;-78
2021/08/03 08:13:28;;;;;;;6.97;3.92;;;;;;;16.56;76.24;100386.19;5077072;28;20172;-78
2021/08/03 08:16:14;;;;;;;4.90;3.85;;;;;;;16.59;76.14;100388.31;5092198;28;20062;-78
2021/08/03 08:19:00;;;;;;;5.68;3.95;;;;;;;16.61;75.85;100384.03;5076214;28;20031;-78
2021/08/03 08:21:45;;;;;;;7.30;4.05;;;;;;;16.64;76.24;100388.97;5101867;28;20032;-77
2021/08/03 08:24:31;;;;;;;6.20;3.70;;;;;;;16.66;76.07;100386.66;5085318;27;20114;-77
2021/08/03 08:27:17;;;;;;;5.47;3.58;;;;;;;16.66;76.12;100392.25;5066086;28;20551;-77
2021/08/03 08:30:03;;;;;;;5.13;3.80;;;;;;;16.67;76.12;100395.88;5088775;28;20037;-77
2021/08/03 08:32:49;;;;;;;5.20;3.70;;;;;;;16.68;75.90;100391.91;5076630;28;20042;-77
2021/08/03 08:35:35;;;;;;;4.82;3.88;;;;;;;16.68;76.10;100401.13;5077559;28;20036;-77
2021/08/03 08:38:21;;;;;;;5.93;3.50;;;;;;;16.69;75.97;100407.59;5072213;28;20470;-77
2021/08/03 08:41:08;;;;;;;6.13;3.80;;;;;;;16.69;76.09;100411.19;5071674;28;20032;-77
2021/08/03 08:43:54;;;;;;;5.30;3.50;;;;;;;16.72;76.73;100412.50;5077135;28;20038;-77
2021/08/03 08:46:40;;;;;;;4.57;3.80;;;;;;;16.71;77.08;100406.06;5090860;28;20061;-78
2021/08/03 08:49:26;;;;;;;7.18;3.92;;;;;;;16.71;76.61;100408.84;5088659;27;20711;-77
2021/08/03 08:52:15;;;;;;;6.93;3.60;;;;;;;16.72;76.72;100413.31;5071353;28;20462;-77
2021/08/03 08:55:01;;;;;;;5.55;3.78;;;;;;;16.73;77.13;100409.34;5092224;27;20058;-77
2021/08/03 08:57:49;;;;;;;5.72;4.13;;;;;;;16.75;77.45;100411.81;5078963;28;20077;-78
2021/08/03 09:00:35;;;;;;;7.13;4.05;;;;;;;16.78;79.15;100414.00;5095028;28;20500;-77
2021/08/03 09:03:20;;;;;;;5.65;4.18;;;;;;;16.80;77.66;100417.28;5088376;27;20050;-77
2021/08/03 09:06:10;;;;;;;6.90;4.07;;;;;;;16.83;77.72;100416.59;5092072;27;20044;-77
2021/08/03 09:08:55;;;;;;;6.25;4.03;;;;;;;16.87;77.43;100413.94;5078450;28;20055;-77
2021/08/03 09:11:46;;;;;;;5.68;4.32;;;;;;;16.89;77.81;100412.44;5087660;28;20122;-77
2021/08/03 09:14:33;;;;;;;6.30;4.63;;;;;;;16.92;78.14;100413.75;5076962;28;20023;-77
2021/08/03 09:17:27;;;;;;;7.55;4.35;;;;;;;16.96;77.54;100415.50;5078855;28;20036;-77
2021/08/03 09:20:14;;;;;;;6.05;3.85;;;;;;;16.98;77.82;100415.19;5072251;28;20020;-77
2021/08/03 09:22:59;;;;;;;9.60;4.57;;;;;;;17.00;77.59;100415.69;5090621;28;20024;-77
2021/08/03 09:25:56;;;;;;;7.10;4.93;;;;;;;17.02;78.37;100410.56;5083150;28;20043;-77
2021/08/03 09:29:03;;;;;;;7.03;3.78;;;;;;;17.06;77.78;100417.13;5072084;28;20036;-77
2021/08/03 09:31:54;;;;;;;6.97;4.40;;;;;;;17.06;77.29;100405.88;5090288;28;20040;-77
2021/08/03 09:34:39;;;;;;;5.57;3.90;;;;;;;17.12;77.83;100410.13;5070512;28;20046;-77
2021/08/03 09:37:32;;;;;;;6.00;4.05;;;;;;;17.19;77.85;100426.44;5085253;28;20127;-77
2021/08/03 09:40:25;;;;;;;7.72;3.72;;;;;;;17.24;78.13;100414.19;5086264;28;20036;-77
2021/08/03 09:43:12;;;;;;;6.95;4.10;;;;;;;17.30;77.77;100424.03;5087041;28;20034;-77
2021/08/03 09:45:59;;;;;;;5.75;3.72;;;;;;;17.34;77.53;100413.78;5067665;28;20042;-77
2021/08/03 09:48:45;;;;;;;6.78;3.72;;;;;;;17.37;78.69;100413.91;5088458;27;20127;-77
2021/08/03 09:51:31;;;;;;;4.93;3.45;;;;;;;17.45;77.98;100408.59;5090251;27;20052;-77
2021/08/03 09:54:17;;;;;;;6.78;3.72;;;;;;;17.51;77.81;100410.00;5070413;28;20079;-77
2021/08/03 09:57:04;;;;;;;5.57;3.80;;;;;;;17.56;77.72;100416.25;5096802;28;20027;-77
2021/08/03 09:59:54;;;;;;;5.22;3.55;;;;;;;17.62;77.16;100408.44;5117152;27;20102;-77
2021/08/03 10:02:40;;;;;;;5.07;3.25;;;;;;;17.70;77.30;100413.16;5098341;27;20042;-78
2021/08/03 10:05:25;;;;;;;7.25;4.03;;;;;;;17.78;77.32;100408.63;5117089;28;20403;-78
2021/08/03 10:08:11;;;;;;;7.43;4.38;;;;;;;17.83;78.22;100405.63;5097653;27;20031;-77
2021/08/03 10:10:57;;;;;;;5.22;3.42;;;;;;;17.90;79.03;100405.06;5072802;28;20095;-77
2021/08/03 10:13:43;;;;;;;7.05;3.83;;;;;;;17.96;78.51;100409.28;5090030;28;20414;-77
2021/08/03 10:16:29;;;;;;;5.60;3.85;;;;;;;18.02;78.05;100411.53;5100404;28;20032;-77
2021/08/03 10:19:20;;;;;;;6.28;3.95;;;;;;;18.04;78.11;100406.38;5112989;27;20043;-77
2021/08/03 10:22:15;;;;;;;5.57;3.67;;;;;;;18.09;77.78;100399.72;5095533;28;20024;-77
2021/08/03 10:25:12;;;;;;;5.70;3.83;;;;;;;18.13;77.63;100399.84;5103021;27;20032;-77
2021/08/03 10:27:58;;;;;;;4.80;3.67;;;;;;;18.19;77.88;100401.25;5101404;28;20039;-78
2021/08/03 10:30:44;;;;;;;5.55;3.65;;;;;;;18.23;77.58;100396.59;5084102;28;20023;-77
2021/08/03 10:33:43;;;;;;;7.05;4.15;;;;;;;18.29;77.73;100398.00;5071281;28;20119;-77
2021/08/03 10:36:41;;;;;;;5.82;4.38;;;;;;;18.29;78.24;100395.19;5059541;28;20454;-77
2021/08/03 10:39:27;;;;;;;6.88;4.25;;;;;;;18.35;77.76;100396.59;5114365;28;20028;-77
2021/08/03 10:42:12;;;;;;;6.70;4.35;;;;;;;18.40;77.74;100399.19;5074104;28;20042;-77
2021/08/03 10:45:00;;;;;;;7.13;4.28;;;;;;;18.45;77.46;100398.97;5085394;27;20031;-78
2021/08/03 10:47:46;;;;;;;5.57;3.83;;;;;;;18.46;77.26;100394.97;5081009;28;20051;-77
2021/08/03 10:50:32;;;;;;;5.65;4.53;;;;;;;18.47;78.88;100393.81;5089063;28;20040;-77
2021/08/03 10:53:18;;;;;;;6.88;4.15;;;;;;;18.47;77.74;100393.81;5071377;28;20474;-77
2021/08/03 10:56:05;;;;;;;5.90;3.80;;;;;;;18.43;77.09;100398.50;5074705;27;20038;-76
2021/08/03 10:58:50;;;;;;;7.43;4.85;;;;;;;18.43;76.86;100400.50;5058469;28;20028;-75
2021/08/03 11:01:46;;;;;;;5.40;4.03;;;;;;;18.37;77.09;100396.28;5078310;28;20039;-75
2021/08/03 11:04:58;;;;;;;5.55;4.05;;;;;;;18.29;77.07;100398.81;5069228;28;20036;-75
2021/08/03 11:07:44;;;;;;;6.47;4.38;;;;;;;18.23;77.47;100391.78;5088385;27;20043;-75
2021/08/03 11:10:29;;;;;;;5.43;4.20;;;;;;;18.21;77.35;100407.38;5059076;28;20088;-75
2021/08/03 11:13:46;;;;;;;6.60;4.32;;;;;;;18.14;77.46;100407.94;5097749;28;20046;-76
2021/08/03 11:16:32;;;;;;;5.18;4.20;;;;;;;18.07;77.67;100402.88;5084061;28;20402;-75
2021/08/03 11:19:27;;;;;;;4.40;3.95;;;;;;;17.98;78.19;100406.97;5111394;27;20096;-75
2021/08/03 11:22:13;;;;;;;8.13;4.18;;;;;;;17.91;78.59;100401.88;5085065;28;20040;-75
2021/08/03 11:24:59;;;;;;;5.95;4.00;;;;;;;17.87;78.17;100400.94;5086327;28;20094;-75
2021/08/03 11:27:45;;;;;;;4.80;4.00;;;;;;;17.83;78.39;100394.41;5073719;28;20466;-77
2021/08/03 11:30:30;;;;;;;4.93;3.95;;;;;;;17.84;78.37;100385.59;5070291;28;20504;-68
2021/08/03 11:33:18;;;;;;;6.20;3.67;;;;;;;17.88;78.68;100396.97;5068709;28;20027;-67
2021/08/03 11:36:10;;;;;;;6.88;4.70;;;;;;;17.96;79.98;100387.63;5072445;28;20507;-67
2021/08/03 11:38:56;;;;;;;5.30;4.15;;;;;;;18.06;79.36;100386.38;5085625;28;20036;-67
2021/08/03 11:41:46;;;;;;;7.38;4.47;;;;;;;18.14;79.46;100391.09;5098129;28;20020;-67
2021/08/03 11:44:32;;;;;;;7.93;4.30;;;;;;;18.28;79.02;100385.13;5071402;28;20093;-68
2021/08/03 11:47:17;;;;;;;5.85;4.65;;;;;;;18.44;79.58;100383.28;5087633;28;20031;-67
2021/08/03 11:50:04;;;;;;;7.55;4.90;;;;;;;18.67;81.51;100388.44;5077436;28;20040;-67
2021/08/03 11:52:49;;;;;;;6.07;4.72;;;;;;;18.83;80.68;100380.94;5096361;27;20027;-68
2021/08/03 11:55:36;;;;;;;7.07;4.70;;;;;;;18.97;80.68;100384.22;5082088;28;20028;-68
2021/08/03 11:58:30;;;;;;;5.50;4.13;;;;;;;19.10;79.54;100372.94;5081569;28;20486;-68
2021/08/03 12:01:16;;;;;;;7.60;4.35;;;;;;;19.25;78.31;100377.84;5079450;28;20476;-68
2021/08/03 12:04:15;;;;;;;7.07;4.03;;;;;;;19.43;77.15;100370.72;5081911;28;20494;-68
2021/08/03 12:07:01;;;;;;;5.15;3.83;;;;;;;19.59;76.49;100367.16;5082856;28;20027;-68
2021/08/03 12:09:47;;;;;;;3.75;3.28;;;;;;;19.79;76.27;100363.34;5084399;28;20035;-68
2021/08/03 12:12:33;;;;;;;8.35;3.35;;;;;;;19.97;74.63;100346.09;5096636;28;20033;-68
2021/08/03 12:15:20;;;;;;;5.00;3.42;;;;;;;20.15;73.08;100358.66;5099236;28;20422;-68
2021/08/03 12:18:08;;;;;;;4.82;3.15;;;;;;;20.32;71.62;100360.31;5097285;28;20042;-68
2021/08/03 12:20:55;;;;;;;5.95;3.55;;;;;;;20.50;70.49;100343.81;5092288;28;20028;-68
2021/08/03 12:23:41;;;;;;;4.72;2.65;;;;;;;20.66;70.38;100350.28;5073330;28;20055;-68
2021/08/03 12:26:27;;;;;;;4.55;3.50;;;;;;;20.81;69.62;100342.16;5083919;28;20028;-68
2021/08/03 12:29:13;;;;;;;5.38;3.20;;;;;;;20.92;68.85;100343.22;5084202;28;20031;-68
2021/08/03 12:31:58;;;;;;;7.22;3.67;;;;;;;21.07;69.10;100342.38;5073720;28;20472;-68
2021/08/03 12:34:44;;;;;;;4.20;3.25;;;;;;;21.24;68.17;100348.78;5093420;28;20035;-68
2021/08/03 12:37:33;;;;;;;5.30;3.28;;;;;;;21.39;67.91;100342.25;5097486;28;20039;-68
2021/08/03 12:40:35;;;;;;;4.90;3.28;;;;;;;21.57;66.60;100345.47;5083198;28;20047;-69
2021/08/03 12:43:39;;;;;;;6.22;3.47;;;;;;;21.80;66.45;100345.53;5085224;28;20516;-68
2021/08/03 12:46:37;;;;;;;5.13;3.30;;;;;;;21.98;66.50;100348.66;5097922;28;20416;-68
2021/08/03 12:49:33;;;;;;;4.45;2.97;;;;;;;22.12;65.28;100357.44;5080868;28;20039;-68
2021/08/03 12:52:21;;;;;;;5.70;3.22;;;;;;;22.21;64.18;100351.56;5066925;28;20024;-68
2021/08/03 12:55:09;;;;;;;4.55;3.17;;;;;;;22.12;63.39;100348.13;5086182;28;20052;-68
2021/08/03 12:57:56;;;;;;;3.25;2.85;;;;;;;22.27;63.65;100345.19;5070926;28;20115;-69
2021/08/03 13:00:42;;;;;;;4.78;3.38;;;;;;;22.29;63.48;100353.31;5073436;28;20027;-68